Time;durP1;ratioP1;P1;durP2;ratioP2;P2;SDS_P1;SDS_P2;PMS_P1;PMS_P2;Temp;Humidity;BMP_temperature;BMP_pressure;BME280_temperature;BME280_humidity;BME280_pressure;Samples;Min_cycle;Max_cycle;Signal;HPM_P1;HPM_P2
2021/11/14 00:00:08;;;;;;;34.20;16.73;;;14.30;91.40;;;;;;5071924;28;20028;-78
2021/11/14 00:02:34;;;;;;;30.02;16.88;;;14.30;91.30;;;;;;5071607;28;20083;-78
2021/11/14 00:05:00;;;;;;;27.48;16.67;;;14.30;91.30;;;;;;5072616;28;20060;-78
2021/11/14 00:07:25;;;;;;;28.55;16.60;;;14.20;91.30;;;;;;5065243;28;20033;-78
2021/11/14 00:09:51;;;;;;;28.77;16.73;;;14.20;91.30;;;;;;5071161;28;20029;-78
2021/11/14 00:12:17;;;;;;;32.15;16.17;;;14.20;91.30;;;;;;5066632;28;20110;-79
2021/11/14 00:14:42;;;;;;;26.88;16.40;;;14.20;91.30;;;;;;5055450;28;20477;-79
2021/11/14 00:17:08;;;;;;;28.70;16.25;;;14.20;91.40;;;;;;5055141;28;20029;-79
2021/11/14 00:19:34;;;;;;;27.15;16.05;;;14.20;91.40;;;;;;5063934;28;20166;-78
2021/11/14 00:22:00;;;;;;;30.30;17.05;;;14.10;91.40;;;;;;5082494;28;20048;-78
2021/11/14 00:24:25;;;;;;;25.50;14.68;;;14.10;91.50;;;;;;5067703;28;20037;-78
2021/11/14 00:26:51;;;;;;;29.83;16.27;;;14.10;91.50;;;;;;5073678;28;20498;-78
2021/11/14 00:29:17;;;;;;;26.70;15.90;;;14.10;91.60;;;;;;5062411;28;20031;-78
2021/11/14 00:31:43;;;;;;;30.48;15.90;;;14.10;91.60;;;;;;5069037;28;20040;-79
2021/11/14 00:34:09;;;;;;;28.27;16.23;;;14.10;91.60;;;;;;5071453;28;20152;-78
2021/11/14 00:36:38;;;;;;;31.95;16.65;;;14.10;91.60;;;;;;5054188;28;20029;-78
2021/11/14 00:39:09;;;;;;;24.95;14.68;;;14.00;91.60;;;;;;5054252;28;20446;-78
2021/11/14 00:41:36;;;;;;;29.90;16.15;;;14.00;91.70;;;;;;5055817;28;20067;-78
2021/11/14 00:44:02;;;;;;;28.27;16.40;;;14.00;91.70;;;;;;5066367;28;20040;-78
2021/11/14 00:46:28;;;;;;;29.50;15.73;;;14.00;91.70;;;;;;5059501;28;20031;-78
2021/11/14 00:48:53;;;;;;;30.52;16.27;;;14.00;91.70;;;;;;5063284;28;20037;-78
2021/11/14 00:51:29;;;;;;;31.42;17.10;;;14.00;91.70;;;;;;5067477;28;20029;-78
2021/11/14 00:53:56;;;;;;;29.25;16.92;;;14.00;91.80;;;;;;5072981;28;20036;-78
2021/11/14 00:56:22;;;;;;;33.50;17.05;;;14.00;91.80;;;;;;5070885;28;20024;-78
2021/11/14 00:58:49;;;;;;;33.38;17.10;;;13.90;91.80;;;;;;5071045;28;20195;-78
2021/11/14 01:01:15;;;;;;;32.47;17.48;;;13.90;91.80;;;;;;5073165;28;20449;-78
2021/11/14 01:03:41;;;;;;;33.55;17.95;;;13.90;91.80;;;;;;5065283;28;20052;-78
2021/11/14 01:06:07;;;;;;;29.48;14.98;;;13.90;91.80;;;;;;5052986;28;20048;-78
2021/11/14 01:08:32;;;;;;;28.60;16.48;;;13.90;91.80;;;;;;5067733;28;20036;-78
2021/11/14 01:11:02;;;;;;;30.13;16.75;;;13.90;91.80;;;;;;5065256;28;20040;-79
2021/11/14 01:13:30;;;;;;;30.38;16.48;;;13.90;91.80;;;;;;5065146;28;20554;-79
2021/11/14 01:15:56;;;;;;;30.92;15.43;;;13.90;91.80;;;;;;5069173;28;20028;-79
2021/11/14 01:18:22;;;;;;;32.22;15.57;;;13.90;91.80;;;;;;5072077;28;20036;-79
2021/11/14 01:20:51;;;;;;;31.35;16.58;;;13.80;91.80;;;;;;5056949;28;20026;-79
2021/11/14 01:23:18;;;;;;;33.33;16.08;;;13.90;91.80;;;;;;5070701;28;20032;-78
2021/11/14 01:25:44;;;;;;;34.83;16.23;;;13.80;91.80;;;;;;5069955;28;20131;-78
2021/11/14 01:28:10;;;;;;;28.13;14.40;;;13.80;91.80;;;;;;5061728;28;20025;-79
2021/11/14 01:30:40;;;;;;;31.73;15.70;;;13.80;91.80;;;;;;5063881;28;20029;-79
2021/11/14 01:33:07;;;;;;;33.17;15.38;;;13.80;91.70;;;;;;5055855;28;20453;-78
2021/11/14 01:35:33;;;;;;;27.25;14.65;;;13.80;91.80;;;;;;5060941;28;20037;-79
2021/11/14 01:38:00;;;;;;;28.35;14.05;;;13.70;91.70;;;;;;5057358;28;20033;-80
2021/11/14 01:40:31;;;;;;;32.38;15.25;;;13.80;91.80;;;;;;5057934;28;20060;-79
2021/11/14 01:42:57;;;;;;;29.80;14.35;;;13.80;91.80;;;;;;5062790;28;20387;-78
2021/11/14 01:45:23;;;;;;;33.53;15.52;;;13.80;91.80;;;;;;5062206;28;20121;-78
2021/11/14 01:47:49;;;;;;;34.65;15.57;;;13.70;91.80;;;;;;5061124;28;20116;-77
2021/11/14 01:50:18;;;;;;;31.83;14.57;;;13.70;91.80;;;;;;5065727;28;20040;-79
2021/11/14 01:52:46;;;;;;;26.95;14.13;;;13.70;91.90;;;;;;5064144;28;20033;-78
2021/11/14 01:55:15;;;;;;;28.45;14.70;;;13.70;91.90;;;;;;5071146;28;20064;-78
2021/11/14 01:57:41;;;;;;;28.08;14.23;;;13.60;91.90;;;;;;5065995;28;20059;-78
2021/11/14 02:00:20;;;;;;;33.40;15.73;;;13.70;91.90;;;;;;5075852;28;20064;-79
2021/11/14 02:02:46;;;;;;;31.48;14.85;;;13.60;91.90;;;;;;5067293;28;20443;-78
2021/11/14 02:05:12;;;;;;;27.88;13.93;;;13.60;91.90;;;;;;5068349;28;20043;-78
2021/11/14 02:07:39;;;;;;;34.05;15.23;;;13.60;91.90;;;;;;5063752;28;20388;-78
2021/11/14 02:10:08;;;;;;;33.63;13.90;;;13.60;91.90;;;;;;5060778;28;20036;-78
2021/11/14 02:12:34;;;;;;;33.08;14.85;;;13.60;91.90;;;;;;5064907;28;20035;-78
2021/11/14 02:14:59;;;;;;;32.67;13.30;;;13.60;91.90;;;;;;5066674;28;20036;-78
2021/11/14 02:17:25;;;;;;;33.45;14.50;;;13.50;91.80;;;;;;5064056;28;20028;-78
2021/11/14 02:19:52;;;;;;;35.17;14.70;;;13.60;91.80;;;;;;5063517;28;20115;-79
2021/11/14 02:22:19;;;;;;;35.55;15.18;;;13.50;91.80;;;;;;5065767;28;20065;-78
2021/11/14 02:24:46;;;;;;;32.08;14.88;;;13.50;91.80;;;;;;5065130;28;20028;-79
2021/11/14 02:27:13;;;;;;;30.25;13.60;;;13.50;91.70;;;;;;5064859;28;20036;-78
2021/11/14 02:29:40;;;;;;;32.50;13.65;;;13.60;91.70;;;;;;5061096;28;20025;-79
2021/11/14 02:32:07;;;;;;;30.30;13.65;;;13.50;91.70;;;;;;5070314;28;20032;-78
2021/11/14 02:34:32;;;;;;;32.20;14.70;;;13.50;91.70;;;;;;5066055;28;20028;-78
2021/11/14 02:36:58;;;;;;;31.27;15.00;;;13.50;91.70;;;;;;5074612;28;20469;-78
2021/11/14 02:39:24;;;;;;;31.13;14.45;;;13.50;91.60;;;;;;5066248;28;20037;-78
2021/11/14 02:41:50;;;;;;;30.05;13.80;;;13.50;91.60;;;;;;5063668;28;20111;-78
2021/11/14 02:44:16;;;;;;;33.00;14.88;;;13.50;91.60;;;;;;5068653;28;20032;-79
2021/11/14 02:46:41;;;;;;;29.83;12.57;;;13.50;91.60;;;;;;5061602;28;20434;-79
2021/11/14 02:49:07;;;;;;;36.42;14.88;;;13.50;91.60;;;;;;5070279;28;20028;-79
2021/11/14 02:51:34;;;;;;;37.63;16.10;;;13.50;91.60;;;;;;5067610;28;20082;-79
2021/11/14 02:54:01;;;;;;;26.60;12.70;;;13.50;91.60;;;;;;5067309;28;20066;-79
2021/11/14 02:56:28;;;;;;;27.95;14.30;;;13.40;91.60;;;;;;5061778;28;20040;-79
2021/11/14 02:58:54;;;;;;;32.13;14.50;;;13.40;91.60;;;;;;5062592;28;20116;-79
2021/11/14 03:01:27;;;;;;;25.95;12.90;;;13.50;91.60;;;;;;5083367;28;20032;-79
2021/11/14 03:03:53;;;;;;;;;;;13.50;91.60;;;;;;5073935;28;20057;-79
2021/11/14 03:06:19;;;;;;;21.23;10.15;;;13.40;91.70;;;;;;5061493;28;19912;-79
2021/11/14 03:08:45;;;;;;;23.63;12.75;;;13.40;91.60;;;;;;5073928;28;20388;-78
2021/11/14 03:11:11;;;;;;;20.48;10.35;;;13.40;91.60;;;;;;5077504;28;20027;-78
2021/11/14 03:13:37;;;;;;;19.45;10.77;;;13.30;91.60;;;;;;5056935;28;20035;-78
2021/11/14 03:16:08;;;;;;;22.42;12.00;;;13.40;91.70;;;;;;5071096;28;20033;-78
2021/11/14 03:18:33;;;;;;;24.02;12.05;;;13.40;91.60;;;;;;5066533;28;20074;-79
2021/11/14 03:21:01;;;;;;;23.48;11.48;;;13.30;91.60;;;;;;5073111;28;20115;-79
2021/11/14 03:23:28;;;;;;;19.98;11.13;;;13.30;91.60;;;;;;5056332;28;20040;-79
2021/11/14 03:25:54;;;;;;;22.35;11.07;;;13.30;91.90;;;;;;5062044;28;20024;-78
2021/11/14 03:28:21;;;;;;;22.40;10.85;;;13.30;91.60;;;;;;5068078;28;20040;-78
2021/11/14 03:30:53;;;;;;;20.73;10.27;;;13.30;91.60;;;;;;5065742;28;20067;-79
2021/11/14 03:33:20;;;;;;;19.75;10.57;;;13.30;91.50;;;;;;5066283;28;20086;-78
2021/11/14 03:35:55;;;;;;;21.80;11.95;;;13.30;91.60;;;;;;5077298;28;20029;-79
2021/11/14 03:38:25;;;;;;;21.83;11.73;;;13.30;91.50;;;;;;5064202;28;20052;-78
2021/11/14 03:40:51;;;;;;;22.35;12.30;;;13.30;91.50;;;;;;5066487;28;20423;-78
2021/11/14 03:43:17;;;;;;;23.98;12.63;;;13.30;91.50;;;;;;5065631;28;20024;-79
2021/11/14 03:45:42;;;;;;;25.70;12.45;;;13.30;91.50;;;;;;5066326;28;20432;-79
2021/11/14 03:48:09;;;;;;;25.13;12.30;;;13.30;91.40;;;;;;5072888;28;20028;-80
2021/11/14 03:50:35;;;;;;;20.88;11.40;;;13.30;91.40;;;;;;5064012;28;20078;-79
2021/11/14 03:53:05;;;;;;;22.13;11.82;;;13.30;91.30;;;;;;5060923;28;20028;-79
2021/11/14 03:55:31;;;;;;;24.90;12.20;;;13.30;91.30;;;;;;5069631;28;20036;-79
2021/11/14 03:57:56;;;;;;;24.10;12.95;;;13.30;91.30;;;;;;5060743;28;20036;-80
2021/11/14 04:00:26;;;;;;;20.35;10.55;;;13.30;91.30;;;;;;5070569;28;20051;-79
2021/11/14 04:02:55;;;;;;;17.80;8.68;;;13.30;91.30;;;;;;5063304;28;20534;-79
2021/11/14 04:05:22;;;;;;;25.63;12.80;;;13.30;91.30;;;;;;5069145;28;20066;-79
2021/11/14 04:07:48;;;;;;;23.17;12.23;;;13.30;91.30;;;;;;5060137;28;20021;-79
2021/11/14 04:10:15;;;;;;;22.65;12.40;;;13.40;91.30;;;;;;5063619;28;20021;-79
2021/11/14 04:12:41;;;;;;;26.23;12.63;;;13.40;91.20;;;;;;5061391;28;20020;-79
2021/11/14 04:15:10;;;;;;;25.40;12.80;;;13.40;91.20;;;;;;5064207;28;20431;-81
2021/11/14 04:17:36;;;;;;;23.90;12.77;;;13.40;91.20;;;;;;5061948;28;20468;-79
2021/11/14 04:20:09;;;;;;;24.02;13.07;;;13.40;91.20;;;;;;5068360;28;20392;-80
2021/11/14 04:22:36;;;;;;;27.42;13.63;;;13.40;91.10;;;;;;5063565;28;20031;-79
2021/11/14 04:25:04;;;;;;;20.13;11.10;;;13.40;91.10;;;;;;5070175;28;20058;-79
2021/11/14 04:27:30;;;;;;;20.05;10.73;;;13.40;91.10;;;;;;5064477;28;20033;-79
2021/11/14 04:29:55;;;;;;;23.58;11.38;;;13.40;91.10;;;;;;5062174;28;20389;-79
2021/11/14 04:32:21;;;;;;;23.08;13.55;;;13.40;91.10;;;;;;5067330;28;20107;-79
2021/11/14 04:34:47;;;;;;;20.35;10.38;;;13.40;91.00;;;;;;5074061;28;20030;-79
2021/11/14 04:37:12;;;;;;;23.70;13.20;;;13.50;91.10;;;;;;5073933;28;20025;-79
2021/11/14 04:39:38;;;;;;;23.23;12.35;;;13.50;91.00;;;;;;5057612;28;20036;-79
2021/11/14 04:42:07;;;;;;;23.17;12.27;;;13.50;90.90;;;;;;5072540;28;20040;-79
2021/11/14 04:44:34;;;;;;;21.70;11.50;;;13.50;90.90;;;;;;5063981;28;20485;-79
2021/11/14 04:46:59;;;;;;;23.10;11.52;;;13.50;90.80;;;;;;5068387;28;20075;-79
2021/11/14 04:49:25;;;;;;;23.30;12.35;;;13.40;90.80;;;;;;5071758;28;20484;-79
2021/11/14 04:51:51;;;;;;;21.63;12.02;;;13.40;90.80;;;;;;5065713;28;20055;-78
2021/11/14 04:54:19;;;;;;;21.50;12.70;;;13.40;90.80;;;;;;5065697;28;20025;-79
2021/11/14 04:56:46;;;;;;;21.88;12.18;;;13.30;90.80;;;;;;5068113;28;20060;-79
2021/11/14 04:59:12;;;;;;;23.50;12.52;;;13.30;90.80;;;;;;5059785;28;20033;-78
2021/11/14 05:01:38;;;;;;;21.98;10.80;;;13.40;90.80;;;;;;5073962;28;20028;-78
2021/11/14 05:04:04;;;;;;;24.45;12.57;;;13.30;90.90;;;;;;5056010;28;20055;-79
2021/11/14 05:06:31;;;;;;;23.38;12.40;;;13.30;90.80;;;;;;5064341;28;20024;-78
2021/11/14 05:08:57;;;;;;;24.67;11.63;;;13.30;90.80;;;;;;5067186;28;20035;-79
2021/11/14 05:11:23;;;;;;;23.50;12.35;;;13.30;90.80;;;;;;5066763;28;20083;-80
2021/11/14 05:13:48;;;;;;;23.85;12.13;;;13.20;90.80;;;;;;5061641;28;20051;-79
2021/11/14 05:16:14;;;;;;;24.25;12.48;;;13.30;90.80;;;;;;5056802;28;20491;-79
2021/11/14 05:18:43;;;;;;;21.50;11.75;;;13.30;90.80;;;;;;5063520;28;20078;-79
2021/11/14 05:21:09;;;;;;;27.65;12.45;;;13.30;90.90;;;;;;5071788;28;20052;-80
2021/11/14 05:23:36;;;;;;;28.23;12.90;;;13.20;90.80;;;;;;5070479;28;20047;-78
2021/11/14 05:26:05;;;;;;;27.40;13.30;;;13.20;90.90;;;;;;5063398;28;20055;-79
2021/11/14 05:28:31;;;;;;;30.33;14.93;;;13.20;90.90;;;;;;5063775;28;20069;-79
2021/11/14 05:30:57;;;;;;;31.88;15.00;;;13.20;91.00;;;;;;5060039;28;20392;-79
2021/11/14 05:33:23;;;;;;;29.25;13.85;;;13.10;91.00;;;;;;5064086;28;20033;-79
2021/11/14 05:35:49;;;;;;;31.80;15.15;;;13.10;91.00;;;;;;5077297;28;20534;-78
2021/11/14 05:38:16;;;;;;;29.83;13.32;;;13.10;91.00;;;;;;5058870;28;20102;-79
2021/11/14 05:40:45;;;;;;;25.00;13.38;;;13.20;91.00;;;;;;5064406;28;20024;-79
2021/11/14 05:43:11;;;;;;;25.70;12.45;;;13.10;91.00;;;;;;5054014;28;20025;-79
2021/11/14 05:45:37;;;;;;;23.38;12.57;;;13.10;91.00;;;;;;5063539;28;20056;-79
2021/11/14 05:48:04;;;;;;;22.00;12.57;;;13.10;91.00;;;;;;5063791;28;20033;-79
2021/11/14 05:50:30;;;;;;;26.70;12.18;;;13.10;90.90;;;;;;5058905;28;20083;-79
2021/11/14 05:52:56;;;;;;;24.33;12.23;;;13.10;90.90;;;;;;5061112;28;20029;-79
2021/11/14 05:55:22;;;;;;;24.85;13.25;;;13.10;91.00;;;;;;5064554;28;20044;-78
2021/11/14 05:57:53;;;;;;;22.70;11.80;;;13.10;91.00;;;;;;5059064;28;20029;-79
2021/11/14 06:00:25;;;;;;;23.52;11.82;;;13.00;90.90;;;;;;5058774;28;20041;-79
2021/11/14 06:03:04;;;;;;;25.52;12.40;;;13.10;91.00;;;;;;5067996;28;20117;-78
2021/11/14 06:05:34;;;;;;;28.73;12.30;;;13.00;90.90;;;;;;5058349;28;20488;-79
2021/11/14 06:07:59;;;;;;;25.58;12.00;;;13.00;90.90;;;;;;5062992;28;20119;-79
2021/11/14 06:10:25;;;;;;;28.02;12.82;;;13.00;90.90;;;;;;5071574;28;20056;-79
2021/11/14 06:12:51;;;;;;;24.65;12.18;;;12.90;90.80;;;;;;5059202;28;20028;-80
2021/11/14 06:15:19;;;;;;;28.38;12.77;;;13.00;90.80;;;;;;5065800;28;20028;-79
2021/11/14 06:17:46;;;;;;;27.98;12.43;;;13.00;90.80;;;;;;5068464;28;20426;-80
2021/11/14 06:20:12;;;;;;;25.85;12.50;;;13.00;90.80;;;;;;5053779;28;20477;-80
2021/11/14 06:22:38;;;;;;;30.13;13.80;;;13.00;90.80;;;;;;5067523;28;20020;-80
2021/11/14 06:25:04;;;;;;;26.83;10.90;;;13.00;90.70;;;;;;5069214;28;20117;-80
2021/11/14 06:27:30;;;;;;;30.75;14.07;;;13.00;90.70;;;;;;5059947;28;20353;-80
2021/11/14 06:29:55;;;;;;;30.02;14.70;;;13.00;90.70;;;;;;5059388;28;20032;-79
2021/11/14 06:32:21;;;;;;;28.92;14.40;;;13.00;90.70;;;;;;5065570;28;20079;-79
2021/11/14 06:34:47;;;;;;;30.45;14.55;;;13.10;90.80;;;;;;5061416;28;20047;-79
2021/11/14 06:37:13;;;;;;;30.25;14.95;;;13.00;90.70;;;;;;5075501;28;20033;-79
2021/11/14 06:39:39;;;;;;;36.67;15.80;;;13.10;90.70;;;;;;5062576;28;20032;-79
2021/11/14 06:42:06;;;;;;;25.88;12.98;;;13.10;90.70;;;;;;5062787;28;20032;-79
2021/11/14 06:44:31;;;;;;;32.67;16.25;;;13.10;90.70;;;;;;5070741;28;20044;-80
2021/11/14 06:46:57;;;;;;;25.80;13.45;;;13.10;90.70;;;;;;5058173;28;20780;-80
2021/11/14 06:49:23;;;;;;;27.55;13.73;;;13.10;90.70;;;;;;5065763;28;20067;-79
2021/11/14 06:51:49;;;;;;;22.25;11.63;;;13.10;90.60;;;;;;5068620;28;20488;-79
2021/11/14 06:54:15;;;;;;;24.35;12.50;;;13.10;90.60;;;;;;5068192;28;20565;-80
2021/11/14 06:56:41;;;;;;;23.80;12.65;;;13.10;90.60;;;;;;5058474;28;20118;-79
2021/11/14 06:59:06;;;;;;;25.80;13.43;;;13.10;90.60;;;;;;5065072;28;20016;-79
2021/11/14 07:01:32;;;;;;;24.65;11.55;;;13.10;90.80;;;;;;5054177;28;20021;-79
2021/11/14 07:03:58;;;;;;;24.13;13.48;;;13.20;90.60;;;;;;5057419;28;20163;-80
2021/11/14 07:06:23;;;;;;;22.65;12.00;;;13.10;90.50;;;;;;5063485;28;20028;-79
2021/11/14 07:08:49;;;;;;;22.90;13.05;;;13.10;90.50;;;;;;5057202;28;20480;-79
2021/11/14 07:11:17;;;;;;;25.02;12.20;;;13.10;90.50;;;;;;5080694;28;20395;-80
2021/11/14 07:13:43;;;;;;;25.00;13.02;;;13.10;90.50;;;;;;5074505;28;20032;-78
2021/11/14 07:16:09;;;;;;;25.52;13.77;;;13.10;90.50;;;;;;5057136;28;20032;-85
2021/11/14 07:18:35;;;;;;;29.00;14.93;;;13.10;90.50;;;;;;5057529;28;20388;-86
2021/11/14 07:21:00;;;;;;;23.15;13.55;;;13.10;90.50;;;;;;5072488;28;20035;-84
2021/11/14 07:23:26;;;;;;;28.73;13.60;;;13.10;90.60;;;;;;5075967;28;20032;-81
2021/11/14 07:25:55;;;;;;;23.48;13.63;;;13.10;90.60;;;;;;5073232;28;20078;-80
2021/11/14 07:28:20;;;;;;;25.25;13.05;;;13.00;90.60;;;;;;5068633;28;20029;-82
2021/11/14 07:30:46;;;;;;;25.75;14.05;;;13.00;90.60;;;;;;5073257;28;20367;-81
2021/11/14 07:33:12;;;;;;;27.90;14.43;;;13.00;90.60;;;;;;5063286;28;20476;-80
2021/11/14 07:35:38;;;;;;;34.15;14.50;;;13.00;90.70;;;;;;5072964;28;20044;-81
2021/11/14 07:38:03;;;;;;;27.92;14.18;;;13.00;90.70;;;;;;5060342;28;20032;-80
2021/11/14 07:40:29;;;;;;;31.48;15.07;;;12.90;90.70;;;;;;5061887;28;20102;-81
2021/11/14 07:42:56;;;;;;;29.27;14.38;;;13.00;90.70;;;;;;5060068;28;20029;-81
2021/11/14 07:45:24;;;;;;;25.83;13.88;;;13.00;90.70;;;;;;5060265;28;20408;-80
2021/11/14 07:47:50;;;;;;;29.30;14.63;;;12.90;90.70;;;;;;5054284;28;20033;-79
2021/11/14 07:50:18;;;;;;;27.30;15.32;;;13.00;90.70;;;;;;5057336;28;20036;-79
2021/11/14 07:52:44;;;;;;;28.75;15.63;;;13.00;90.70;;;;;;5054042;28;20029;-80
2021/11/14 07:55:10;;;;;;;25.77;13.10;;;13.00;90.70;;;;;;5067117;28;20104;-80
2021/11/14 07:57:42;;;;;;;30.70;16.10;;;13.00;90.70;;;;;;5058741;28;20021;-79
2021/11/14 08:00:12;;;;;;;31.95;15.57;;;13.00;90.70;;;;;;5057941;28;20025;-78
2021/11/14 08:02:37;;;;;;;30.42;15.38;;;13.00;90.70;;;;;;5060794;28;20033;-80
2021/11/14 08:05:03;;;;;;;28.25;14.93;;;13.00;90.70;;;;;;5055249;28;20032;-80
2021/11/14 08:07:29;;;;;;;26.45;13.80;;;13.00;90.70;;;;;;5069648;28;20041;-80
2021/11/14 08:09:55;;;;;;;28.30;14.23;;;13.00;90.70;;;;;;5072176;28;20035;-81
2021/11/14 08:12:20;;;;;;;34.17;16.13;;;13.00;90.70;;;;;;5058783;28;20384;-77
2021/11/14 08:14:46;;;;;;;33.67;16.05;;;13.00;90.70;;;;;;5056554;28;20052;-77
2021/11/14 08:17:12;;;;;;;30.88;14.85;;;12.90;90.70;;;;;;5059559;28;20506;-78
2021/11/14 08:19:37;;;;;;;37.15;15.85;;;12.90;90.70;;;;;;5059427;28;20184;-77
2021/11/14 08:22:03;;;;;;;33.45;15.85;;;13.00;90.70;;;;;;5059139;28;20116;-76
2021/11/14 08:24:29;;;;;;;32.35;15.00;;;12.90;90.70;;;;;;5062770;28;20040;-77
2021/11/14 08:26:55;;;;;;;31.95;14.40;;;13.00;91.10;;;;;;5044671;28;20124;-77
2021/11/14 08:29:21;;;;;;;30.38;14.80;;;13.00;90.80;;;;;;5054881;28;20056;-78
2021/11/14 08:31:47;;;;;;;32.83;15.77;;;13.00;90.80;;;;;;5052356;28;20462;-77
2021/11/14 08:34:13;;;;;;;36.60;16.52;;;13.00;90.80;;;;;;5053224;28;20749;-77
2021/11/14 08:36:39;;;;;;;34.88;14.65;;;13.00;90.80;;;;;;5062876;28;20029;-77
2021/11/14 08:39:05;;;;;;;34.25;15.13;;;12.90;90.80;;;;;;5065548;28;20381;-77
2021/11/14 08:41:31;;;;;;;25.13;11.02;;;13.00;90.80;;;;;;5056891;28;20108;-77
2021/11/14 08:44:14;;;;;;;29.52;13.43;;;13.00;90.80;;;;;;5060470;28;20123;-77
2021/11/14 08:46:40;;;;;;;34.70;14.95;;;12.90;90.80;;;;;;5053953;28;20048;-77
2021/11/14 08:49:06;;;;;;;30.05;13.75;;;12.90;90.80;;;;;;5066723;28;20499;-77
2021/11/14 08:51:32;;;;;;;30.73;14.60;;;13.00;90.70;;;;;;5068661;28;20372;-75
2021/11/14 08:53:58;;;;;;;32.70;14.32;;;13.00;90.70;;;;;;5063393;28;20755;-78
2021/11/14 08:56:31;;;;;;;33.35;14.30;;;13.00;90.70;;;;;;5060561;28;20028;-78
2021/11/14 08:58:57;;;;;;;35.78;15.30;;;13.00;90.70;;;;;;5066898;28;20033;-78
2021/11/14 09:01:23;;;;;;;32.80;15.18;;;12.90;90.70;;;;;;5050620;28;20060;-78
2021/11/14 09:03:49;;;;;;;35.65;15.68;;;12.90;90.70;;;;;;5062997;28;20119;-77
2021/11/14 09:06:15;;;;;;;32.10;14.02;;;13.00;90.70;;;;;;5066010;28;20491;-77
2021/11/14 09:08:41;;;;;;;30.52;15.07;;;12.90;90.60;;;;;;5068839;28;20029;-78
2021/11/14 09:11:07;;;;;;;35.30;13.80;;;12.90;90.60;;;;;;5051799;28;20029;-77
2021/11/14 09:13:33;;;;;;;33.85;14.70;;;12.90;90.60;;;;;;5062739;28;20029;-78
2021/11/14 09:16:00;;;;;;;27.50;13.40;;;12.90;90.60;;;;;;5053185;28;20082;-78
2021/11/14 09:18:27;;;;;;;30.38;14.48;;;13.00;90.60;;;;;;5058500;28;20029;-78
2021/11/14 09:20:53;;;;;;;34.50;14.35;;;13.00;90.70;;;;;;5059137;28;20021;-77
2021/11/14 09:23:19;;;;;;;34.22;12.75;;;13.00;90.70;;;;;;5070166;28;20042;-77
2021/11/14 09:25:46;;;;;;;25.80;8.95;;;13.00;90.70;;;;;;5060806;28;20033;-77
2021/11/14 09:28:14;;;;;;;32.50;14.55;;;13.00;90.80;;;;;;5065810;28;20055;-77
2021/11/14 09:30:42;;;;;;;30.10;14.57;;;13.00;90.80;;;;;;5057993;28;20032;-77
2021/11/14 09:33:09;;;;;;;30.40;13.15;;;13.00;90.80;;;;;;5056119;28;20387;-77
2021/11/14 09:35:35;;;;;;;34.55;15.32;;;13.00;90.70;;;;;;5055272;28;20124;-77
2021/11/14 09:38:03;;;;;;;33.95;15.30;;;13.00;90.70;;;;;;5051811;28;20169;-77
2021/11/14 09:40:29;;;;;;;29.30;14.55;;;13.10;90.70;;;;;;5048657;28;20511;-78
2021/11/14 09:42:57;;;;;;;26.88;8.95;;;13.00;90.70;;;;;;5052635;28;20037;-76
2021/11/14 09:45:27;;;;;;;27.13;11.93;;;13.00;90.70;;;;;;5061184;28;20603;-77
2021/11/14 09:47:54;;;;;;;35.92;15.90;;;13.10;90.80;;;;;;5053170;28;20033;-77
2021/11/14 09:50:19;;;;;;;28.83;11.70;;;13.10;90.80;;;;;;5052708;28;20125;-75
2021/11/14 09:52:45;;;;;;;28.88;11.40;;;13.10;90.80;;;;;;5054623;28;20064;-77
2021/11/14 09:55:11;;;;;;;26.23;10.93;;;13.10;90.80;;;;;;5053813;28;20509;-76
2021/11/14 09:57:41;;;;;;;27.48;13.27;;;13.10;90.80;;;;;;5053231;28;20477;-75
2021/11/14 10:00:11;;;;;;;27.08;12.77;;;13.10;90.80;;;;;;5048448;28;20029;-76
2021/11/14 10:02:39;;;;;;;26.02;12.98;;;13.10;90.80;;;;;;5055079;28;20031;-75
2021/11/14 10:05:07;;;;;;;21.38;9.50;;;13.10;90.80;;;;;;5049481;28;20116;-77
2021/11/14 10:07:33;;;;;;;21.10;9.38;;;13.10;90.80;;;;;;5054172;28;20028;-78
2021/11/14 10:09:59;;;;;;;23.25;12.00;;;13.10;90.90;;;;;;5055742;28;20727;-78
2021/11/14 10:12:35;;;;;;;32.08;14.13;;;13.10;90.90;;;;;;5054821;28;20016;-76
2021/11/14 10:15:20;;;;;;;31.02;12.27;;;13.20;90.90;;;;;;5056593;28;20024;-77
2021/11/14 10:17:55;;;;;;;30.15;13.15;;;13.10;90.80;;;;;;5054560;28;20083;-83
2021/11/14 10:20:25;;;;;;;28.30;11.55;;;13.10;90.80;;;;;;5056629;28;20029;-82
2021/11/14 10:22:54;;;;;;;37.00;13.88;;;13.10;90.80;;;;;;5055358;28;20039;-80
2021/11/14 10:25:21;;;;;;;29.63;13.80;;;13.10;90.80;;;;;;5053647;28;20036;-79
2021/11/14 10:27:51;;;;;;;28.77;13.02;;;13.20;90.80;;;;;;5057697;28;20017;-78
2021/11/14 10:30:20;;;;;;;33.08;12.07;;;13.20;90.80;;;;;;5060479;28;20028;-79
2021/11/14 10:32:49;;;;;;;31.05;14.07;;;13.20;90.80;;;;;;5057989;28;20025;-77
2021/11/14 10:35:15;;;;;;;35.65;13.98;;;13.10;90.80;;;;;;5062142;28;20037;-79
2021/11/14 10:37:43;;;;;;;31.65;12.20;;;13.20;90.80;;;;;;5062466;28;20025;-79
2021/11/14 10:40:17;;;;;;;31.58;11.93;;;13.20;90.80;;;;;;5054908;28;20033;-82
2021/11/14 10:42:44;;;;;;;;;;;13.20;90.80;;;;;;5060355;28;20024;-78
2021/11/14 10:45:09;;;;;;;30.23;12.55;;;13.20;90.90;;;;;;5054145;28;20010;-79
2021/11/14 10:47:35;;;;;;;32.45;11.77;;;13.20;90.70;;;;;;5058755;28;20116;-78
2021/11/14 10:50:07;;;;;;;30.88;12.93;;;13.20;90.70;;;;;;5065202;28;20035;-80
2021/11/14 10:52:35;;;;;;;32.45;11.93;;;13.30;90.80;;;;;;5070120;28;20143;-78
2021/11/14 10:55:09;;;;;;;31.85;12.25;;;13.20;90.80;;;;;;5073434;28;20032;-75
2021/11/14 10:57:37;;;;;;;30.20;11.40;;;13.20;90.90;;;;;;5061546;28;20024;-78
2021/11/14 11:00:13;;;;;;;31.20;13.13;;;13.20;90.90;;;;;;5072537;28;20032;-76
2021/11/14 11:02:42;;;;;;;30.25;11.45;;;13.20;90.90;;;;;;5058679;28;20508;-76
2021/11/14 11:05:11;;;;;;;34.50;12.25;;;13.20;90.80;;;;;;5065678;28;20071;-75
2021/11/14 11:07:39;;;;;;;29.23;12.43;;;13.20;90.90;;;;;;5069449;28;20024;-77
2021/11/14 11:10:08;;;;;;;29.80;12.73;;;13.20;90.80;;;;;;5055292;28;20089;-78
2021/11/14 11:12:35;;;;;;;30.83;12.93;;;13.20;90.80;;;;;;5057071;28;20024;-78
2021/11/14 11:15:06;;;;;;;27.98;12.40;;;13.20;90.80;;;;;;5067691;28;20020;-79
2021/11/14 11:17:42;;;;;;;28.05;12.07;;;13.20;90.80;;;;;;5065559;28;20131;-78
2021/11/14 11:20:13;;;;;;;31.88;12.18;;;13.20;90.70;;;;;;5068730;28;20056;-79
2021/11/14 11:23:10;;;;;;;25.02;10.95;;;13.20;90.70;;;;;;5070582;28;20020;-80
2021/11/14 11:25:45;;;;;;;25.35;11.43;;;13.30;90.80;;;;;;5061804;28;20052;-78
2021/11/14 11:28:17;;;;;;;34.65;13.52;;;13.20;90.80;;;;;;5064161;28;20037;-80
2021/11/14 11:30:47;;;;;;;32.03;12.85;;;13.30;90.80;;;;;;5066888;28;20025;-78
2021/11/14 11:33:15;;;;;;;34.00;12.40;;;13.20;90.80;;;;;;5058627;28;20111;-78
2021/11/14 11:35:41;;;;;;;28.30;11.90;;;13.20;90.80;;;;;;5056984;28;20448;-77
2021/11/14 11:38:07;;;;;;;29.92;11.40;;;13.30;90.80;;;;;;5058201;28;20059;-77
2021/11/14 11:40:33;;;;;;;32.53;12.05;;;13.30;90.90;;;;;;5054422;28;20032;-79
2021/11/14 11:43:01;;;;;;;29.88;10.98;;;13.20;90.80;;;;;;5064528;28;20107;-79
2021/11/14 11:45:33;;;;;;;28.55;11.77;;;13.20;90.90;;;;;;5062766;28;20046;-79
2021/11/14 11:48:01;;;;;;;28.10;11.98;;;13.30;90.80;;;;;;5059982;28;20037;-79
2021/11/14 11:50:29;;;;;;;29.13;11.77;;;13.30;90.90;;;;;;5058713;28;20395;-79
2021/11/14 11:52:55;;;;;;;30.30;12.00;;;13.30;90.80;;;;;;5072558;28;20036;-83
2021/11/14 11:55:37;;;;;;;31.83;12.60;;;13.30;90.80;;;;;;5069449;28;20029;-78
2021/11/14 11:58:19;;;;;;;22.92;10.48;;;13.30;90.70;;;;;;5068047;28;20035;-79
2021/11/14 12:00:55;;;;;;;28.65;11.93;;;13.30;90.70;;;;;;5055816;28;20074;-79
2021/11/14 12:03:35;;;;;;;28.83;10.85;;;13.30;90.70;;;;;;5061629;28;20090;-80
2021/11/14 12:06:02;;;;;;;27.77;11.90;;;13.30;90.70;;;;;;5055213;28;20032;-80
2021/11/14 12:08:46;;;;;;;28.77;11.90;;;13.30;90.70;;;;;;5060380;28;20485;-78
2021/11/14 12:11:24;;;;;;;30.60;11.63;;;13.40;90.60;;;;;;5057404;28;20040;-78
2021/11/14 12:13:50;;;;;;;31.17;11.30;;;13.40;90.60;;;;;;5058407;28;20031;-78
2021/11/14 12:16:32;;;;;;;26.40;9.43;;;13.50;90.60;;;;;;5059989;28;20036;-78
2021/11/14 12:19:02;;;;;;;25.55;11.13;;;13.40;90.70;;;;;;5054826;28;20025;-81
2021/11/14 12:21:31;;;;;;;32.17;12.32;;;13.50;90.60;;;;;;5058540;28;20406;-78
2021/11/14 12:24:08;;;;;;;23.98;9.13;;;13.40;90.50;;;;;;5061096;28;20136;-78
2021/11/14 12:26:35;;;;;;;23.83;9.93;;;13.50;90.50;;;;;;5066148;28;20032;-78
2021/11/14 12:29:06;;;;;;;21.02;9.65;;;13.50;90.50;;;;;;5063803;28;20046;-78